Time;durP1;ratioP1;P1;durP2;ratioP2;P2;SDS_P1;SDS_P2;PMS_P1;PMS_P2;Temp;Humidity;BMP_temperature;BMP_pressure;BME280_temperature;BME280_humidity;BME280_pressure;Samples;Min_cycle;Max_cycle;Signal;HPM_P1;HPM_P2
2023/01/18 00:00:47;;;;;;;18.60;7.60;;;-2.60;99.90;;;;;;5090419;28;20059;-61
2023/01/18 00:03:13;;;;;;;11.80;5.65;;;-2.60;99.90;;;;;;5108892;28;20051;-61
2023/01/18 00:05:40;;;;;;;14.95;6.65;;;-2.60;99.90;;;;;;5096086;28;20032;-61
2023/01/18 00:08:09;;;;;;;15.40;7.00;;;-2.60;99.90;;;;;;5109373;28;20024;-61
2023/01/18 00:10:35;;;;;;;16.73;6.32;;;-2.60;99.90;;;;;;5112356;28;20035;-60
2023/01/18 00:13:01;;;;;;;12.27;6.07;;;-2.70;99.90;;;;;;5096419;28;20023;-61
2023/01/18 00:15:27;;;;;;;13.23;5.90;;;-2.70;99.90;;;;;;5112635;28;20019;-61
2023/01/18 00:17:52;;;;;;;13.75;6.45;;;-2.60;99.90;;;;;;5093883;28;20047;-61
2023/01/18 00:20:23;;;;;;;12.25;5.32;;;-2.60;99.90;;;;;;5112055;28;20393;-61
2023/01/18 00:22:49;;;;;;;6.43;4.10;;;-2.60;99.90;;;;;;5094411;28;20043;-61
2023/01/18 00:25:15;;;;;;;10.55;4.88;;;-2.60;99.90;;;;;;5112305;28;20186;-61
2023/01/18 00:27:46;;;;;;;12.02;4.93;;;-2.60;99.90;;;;;;5093458;28;20068;-61
2023/01/18 00:30:12;;;;;;;7.57;3.67;;;-2.60;99.90;;;;;;5108123;28;20295;-61
2023/01/18 00:32:37;;;;;;;8.13;4.53;;;-2.60;99.90;;;;;;5092210;28;20574;-60
2023/01/18 00:35:06;;;;;;;9.43;4.75;;;-2.60;99.90;;;;;;5111989;28;20289;-61
2023/01/18 00:37:32;;;;;;;9.02;4.93;;;-2.60;99.90;;;;;;5091456;28;20391;-61
2023/01/18 00:39:58;;;;;;;8.25;4.93;;;-2.60;99.90;;;;;;5111704;28;20027;-61
2023/01/18 00:45:07;;;;;;;9.88;5.07;;;-2.60;99.90;;;;;;5112123;28;20424;-61
2023/01/18 00:47:33;;;;;;;9.23;4.95;;;-2.60;99.90;;;;;;5091859;28;20125;-61
2023/01/18 00:49:59;;;;;;;9.45;4.70;;;-2.50;99.90;;;;;;5111768;28;20031;-61
2023/01/18 00:52:24;;;;;;;9.50;5.18;;;-2.50;99.90;;;;;;5090602;28;20020;-61
2023/01/18 00:54:50;;;;;;;12.02;6.03;;;-2.50;99.90;;;;;;5111621;28;20028;-61
2023/01/18 00:57:15;;;;;;;12.10;5.25;;;-2.50;99.90;;;;;;5091557;28;20031;-61
2023/01/18 00:59:40;;;;;;;9.15;4.35;;;-2.50;99.90;;;;;;5109399;28;20074;-60
2023/01/18 01:02:06;;;;;;;7.68;4.05;;;-2.50;99.90;;;;;;5091727;28;20031;-61
2023/01/18 01:07:15;;;;;;;5.78;3.75;;;-2.50;99.90;;;;;;5067258;28;20039;-61
2023/01/18 01:09:43;;;;;;;5.93;3.20;;;-2.50;99.90;;;;;;5108818;28;20032;-60
2023/01/18 01:28:30;;;;;;;10.23;4.68;;;-2.40;99.90;;;;;;5097354;28;20078;-61
2023/01/18 01:30:57;;;;;;;5.60;3.53;;;-2.30;99.90;;;;;;5100337;28;20511;-61
2023/01/18 01:33:22;;;;;;;8.23;4.38;;;-2.30;99.90;;;;;;5097841;28;20020;-61
2023/01/18 01:35:48;;;;;;;7.28;3.38;;;-2.30;99.90;;;;;;5088668;28;20085;-59
2023/01/18 01:38:14;;;;;;;7.43;4.05;;;-2.30;99.90;;;;;;5110689;28;20030;-61
2023/01/18 01:40:39;;;;;;;8.80;4.30;;;-2.20;99.90;;;;;;5090618;28;20097;-61
2023/01/18 01:43:11;;;;;;;6.65;3.50;;;-2.20;99.90;;;;;;5094310;28;20035;-61
2023/01/18 01:45:36;;;;;;;6.53;3.47;;;-2.20;99.90;;;;;;5109482;28;20080;-61
2023/01/18 01:48:02;;;;;;;9.45;4.40;;;-2.20;99.90;;;;;;5095474;28;20035;-61
2023/01/18 01:50:36;;;;;;;7.88;3.47;;;-2.20;99.90;;;;;;5109323;28;20028;-61
2023/01/18 01:53:03;;;;;;;5.95;3.63;;;-2.10;99.90;;;;;;5082143;28;20102;-61
2023/01/18 01:55:35;;;;;;;8.80;4.13;;;-2.10;99.90;;;;;;5110345;28;20019;-61
2023/01/18 01:58:08;;;;;;;4.43;3.20;;;-2.10;99.90;;;;;;5094838;28;20423;-61
2023/01/18 02:00:34;;;;;;;6.85;3.60;;;-2.10;99.90;;;;;;5110201;28;20080;-60
2023/01/18 02:03:06;;;;;;;9.57;4.88;;;-2.10;99.90;;;;;;5095234;28;20024;-61
2023/01/18 02:05:35;;;;;;;9.35;5.03;;;-2.10;99.90;;;;;;5092582;28;20772;-61
2023/01/18 02:08:01;;;;;;;6.95;3.90;;;-2.00;99.90;;;;;;5107620;28;20031;-61
2023/01/18 02:10:28;;;;;;;10.02;3.60;;;-2.00;99.90;;;;;;5110147;28;20072;-61
2023/01/18 02:12:55;;;;;;;8.45;4.10;;;-1.90;99.90;;;;;;5094020;28;20080;-61
2023/01/18 02:15:28;;;;;;;6.85;3.55;;;-1.90;99.90;;;;;;5110088;28;20057;-62
2023/01/18 02:18:12;;;;;;;5.78;3.42;;;-1.90;99.90;;;;;;5109864;28;20230;-68
2023/01/18 02:20:51;;;;;;;6.07;3.58;;;-1.90;99.90;;;;;;5071207;28;20028;-55
2023/01/18 02:23:37;;;;;;;10.75;4.18;;;-1.90;99.90;;;;;;5109661;28;20173;-58
2023/01/18 02:26:22;;;;;;;12.02;4.47;;;-1.90;99.90;;;;;;5078522;28;20058;-56
2023/01/18 02:29:05;;;;;;;10.60;4.28;;;-1.90;99.90;;;;;;5109671;28;20030;-58
2023/01/18 02:31:47;;;;;;;9.13;4.00;;;-1.90;99.90;;;;;;5085985;28;20507;-56
2023/01/18 02:34:25;;;;;;;5.75;3.47;;;-1.90;99.90;;;;;;5069030;28;20569;-58
2023/01/18 02:37:14;;;;;;;8.57;3.97;;;-1.90;99.90;;;;;;5091697;28;20031;-58
2023/01/18 02:39:49;;;;;;;9.35;4.03;;;-1.90;99.90;;;;;;5068337;28;20107;-57
2023/01/18 02:47:56;;;;;;;6.53;3.38;;;-1.80;99.90;;;;;;5068868;28;20048;-58
2023/01/18 02:50:25;;;;;;;4.97;3.22;;;-1.90;99.90;;;;;;5108030;28;20028;-56
2023/01/18 02:52:52;;;;;;;8.80;3.80;;;-1.90;99.90;;;;;;5109731;28;20063;-58
2023/01/18 02:55:40;;;;;;;6.38;3.50;;;-1.90;99.90;;;;;;5089077;28;20020;-56
2023/01/18 02:58:23;;;;;;;6.10;3.53;;;-1.90;99.90;;;;;;5089111;28;20079;-57
2023/01/18 03:01:04;;;;;;;5.88;3.33;;;-1.90;99.90;;;;;;5074153;28;20051;-58
2023/01/18 03:03:30;;;;;;;6.10;2.85;;;-1.90;99.90;;;;;;5109402;28;20055;-56
2023/01/18 03:06:00;;;;;;;6.90;4.43;;;-1.90;99.90;;;;;;5083402;28;20495;-60
2023/01/18 03:08:45;;;;;;;6.35;4.05;;;-1.90;99.90;;;;;;5109341;28;20557;-61
2023/01/18 03:11:27;;;;;;;7.07;3.42;;;-1.90;99.90;;;;;;5080088;28;20058;-60
2023/01/18 03:14:18;;;;;;;8.40;3.75;;;-1.90;99.90;;;;;;5109351;28;20026;-61
2023/01/18 03:16:58;;;;;;;5.45;3.17;;;-1.90;99.90;;;;;;5089561;28;20032;-58
2023/01/18 03:25:36;;;;;;;8.63;3.45;;;-1.80;99.90;;;;;;5069806;28;20067;-57
2023/01/18 03:33:46;;;;;;;6.90;3.90;;;-1.90;99.90;;;;;;5068423;28;20047;-57
2023/01/18 03:36:31;;;;;;;6.93;3.83;;;-1.80;99.90;;;;;;5080125;28;20561;-56
2023/01/18 03:39:03;;;;;;;7.47;3.63;;;-1.80;99.90;;;;;;5068204;28;20520;-55
2023/01/18 03:41:32;;;;;;;7.15;3.63;;;-1.80;99.90;;;;;;5085471;28;20031;-58
2023/01/18 03:44:04;;;;;;;8.23;3.67;;;-1.80;99.90;;;;;;5088307;28;20568;-56
2023/01/18 03:46:31;;;;;;;5.35;3.33;;;-1.80;99.90;;;;;;5085085;28;20054;-57
2023/01/18 03:48:57;;;;;;;6.07;3.40;;;-1.80;99.90;;;;;;5088437;28;20040;-57
2023/01/18 03:51:46;;;;;;;6.72;3.85;;;-1.80;99.90;;;;;;5107122;28;20028;-57
2023/01/18 03:54:33;;;;;;;7.32;3.03;;;-1.80;99.90;;;;;;5072027;28;20038;-57
2023/01/18 03:57:25;;;;;;;6.60;2.92;;;-1.80;99.90;;;;;;5083506;28;20032;-57
2023/01/18 03:59:50;;;;;;;4.68;2.45;;;-1.80;99.90;;;;;;5072062;28;20032;-57
2023/01/18 04:02:17;;;;;;;6.15;3.45;;;-1.70;99.90;;;;;;5093031;28;20038;-57
2023/01/18 04:04:43;;;;;;;6.05;3.38;;;-1.70;99.90;;;;;;5109061;28;20031;-57
2023/01/18 04:07:09;;;;;;;4.97;3.40;;;-1.70;99.90;;;;;;5082889;28;20032;-58
2023/01/18 04:09:34;;;;;;;3.63;2.83;;;-1.60;99.90;;;;;;5111517;28;20042;-57
2023/01/18 04:11:59;;;;;;;4.35;2.67;;;-1.60;99.90;;;;;;5090495;28;20515;-56
2023/01/18 04:14:25;;;;;;;4.40;2.63;;;-1.60;99.90;;;;;;5111766;28;20089;-57
2023/01/18 04:16:51;;;;;;;6.20;2.38;;;-1.60;99.90;;;;;;5090449;28;20028;-58
2023/01/18 04:19:16;;;;;;;7.13;2.70;;;-1.60;99.90;;;;;;5111225;28;20141;-58
2023/01/18 04:21:42;;;;;;;6.70;3.10;;;-1.60;99.90;;;;;;5101390;28;20031;-57
2023/01/18 04:24:08;;;;;;;5.82;3.33;;;-1.50;99.90;;;;;;5092131;28;20032;-58
2023/01/18 04:26:33;;;;;;;4.75;2.72;;;-1.60;99.90;;;;;;5109325;28;20108;-58
2023/01/18 04:28:59;;;;;;;6.05;2.67;;;-1.50;99.90;;;;;;5092145;28;20051;-56
2023/01/18 04:31:25;;;;;;;4.95;3.00;;;-1.50;99.90;;;;;;5109165;28;20418;-57
2023/01/18 04:33:51;;;;;;;4.82;2.45;;;-1.50;99.90;;;;;;5091915;28;20352;-57
2023/01/18 04:36:20;;;;;;;6.68;2.70;;;-1.50;99.90;;;;;;5108914;28;20027;-57
2023/01/18 04:38:45;;;;;;;8.77;3.22;;;-1.50;99.90;;;;;;5091896;27;20032;-57
2023/01/18 04:41:11;;;;;;;7.60;2.80;;;-1.50;99.90;;;;;;5109171;28;20527;-58
2023/01/18 04:43:36;;;;;;;4.78;2.63;;;-1.50;99.90;;;;;;5110290;28;20026;-59
2023/01/18 04:46:02;;;;;;;4.22;2.63;;;-1.40;99.90;;;;;;5095316;28;20049;-56
2023/01/18 04:48:28;;;;;;;4.55;2.50;;;-1.40;99.90;;;;;;5111705;28;20031;-59
2023/01/18 04:50:53;;;;;;;5.80;2.65;;;-1.40;99.90;;;;;;5094025;28;20058;-58
2023/01/18 04:53:19;;;;;;;3.88;2.25;;;-1.40;99.90;;;;;;5111522;28;20403;-58
2023/01/18 04:55:45;;;;;;;3.72;2.28;;;-1.30;99.90;;;;;;5087480;28;20423;-57
2023/01/18 04:58:10;;;;;;;8.60;2.80;;;-1.30;99.90;;;;;;5090502;28;20135;-56
2023/01/18 05:00:38;;;;;;;6.82;2.78;;;-1.30;99.90;;;;;;5091732;28;20032;-58
2023/01/18 05:03:11;;;;;;;4.38;2.58;;;-1.20;99.90;;;;;;5110422;28;20487;-57
2023/01/18 05:05:37;;;;;;;6.53;2.53;;;-1.20;99.90;;;;;;5089239;28;20120;-58
2023/01/18 05:08:02;;;;;;;4.07;2.55;;;-1.20;99.90;;;;;;5091407;28;20060;-58
2023/01/18 05:10:28;;;;;;;9.52;4.57;;;-1.20;99.90;;;;;;5092503;28;20122;-58
2023/01/18 05:12:54;;;;;;;13.60;5.07;;;-1.10;99.90;;;;;;5110543;28;20775;-58
2023/01/18 05:15:19;;;;;;;16.05;5.95;;;-1.10;99.90;;;;;;5089672;28;20048;-58
2023/01/18 05:17:45;;;;;;;11.45;5.47;;;-1.00;99.90;;;;;;5101193;28;20384;-58
2023/01/18 05:20:11;;;;;;;7.93;4.85;;;-1.00;99.90;;;;;;5101530;28;20034;-59
2023/01/18 05:22:37;;;;;;;9.07;4.50;;;-1.00;99.90;;;;;;5091441;28;20062;-56
2023/01/18 05:25:06;;;;;;;7.15;3.38;;;-0.90;99.90;;;;;;5110102;28;20059;-58
2023/01/18 05:27:32;;;;;;;6.45;3.28;;;-0.90;99.90;;;;;;5090484;28;20667;-58
2023/01/18 05:29:58;;;;;;;5.30;3.58;;;-0.90;99.90;;;;;;5107455;28;20045;-58
2023/01/18 05:32:24;;;;;;;7.25;4.38;;;-0.90;99.90;;;;;;5089569;28;20106;-58
2023/01/18 05:34:49;;;;;;;9.95;4.25;;;-0.80;99.90;;;;;;5108210;28;20126;-57
2023/01/18 05:37:15;;;;;;;4.13;2.85;;;-0.80;99.90;;;;;;5087998;28;20043;-58
2023/01/18 05:39:40;;;;;;;5.22;2.83;;;-0.70;99.90;;;;;;5109141;28;20039;-57
2023/01/18 05:42:06;;;;;;;7.38;2.67;;;-0.70;99.90;;;;;;5098393;28;20086;-58
2023/01/18 05:44:32;;;;;;;5.90;2.72;;;-0.70;99.90;;;;;;5089872;28;20093;-56
2023/01/18 05:46:58;;;;;;;7.25;3.20;;;-0.60;99.90;;;;;;5096595;28;20452;-57
2023/01/18 05:49:23;;;;;;;6.40;2.83;;;-0.60;99.90;;;;;;5108714;28;20042;-57
2023/01/18 05:51:49;;;;;;;4.90;3.15;;;-0.60;99.90;;;;;;5096119;28;20501;-57
2023/01/18 05:54:15;;;;;;;4.22;2.58;;;-0.50;99.90;;;;;;5083970;28;20404;-56
2023/01/18 05:56:41;;;;;;;6.35;2.65;;;-0.50;99.90;;;;;;5098517;28;20050;-53
2023/01/18 05:59:06;;;;;;;5.07;2.92;;;-0.50;99.90;;;;;;5093291;28;20036;-56
2023/01/18 06:01:32;;;;;;;10.55;3.75;;;-0.40;99.90;;;;;;5108546;28;20116;-57
2023/01/18 06:03:57;;;;;;;6.25;3.80;;;-0.40;99.90;;;;;;5087567;28;20438;-57
2023/01/18 06:06:23;;;;;;;8.32;4.10;;;-0.40;99.90;;;;;;5100827;28;20063;-55
2023/01/18 06:08:48;;;;;;;6.07;3.53;;;-0.30;99.90;;;;;;5087456;28;20097;-56
2023/01/18 06:11:14;;;;;;;7.93;4.07;;;-0.30;99.90;;;;;;5108198;28;20452;-56
2023/01/18 06:13:39;;;;;;;10.02;4.93;;;-0.30;99.90;;;;;;5097181;28;20050;-56
2023/01/18 06:16:05;;;;;;;8.45;4.80;;;-0.30;99.90;;;;;;5089139;28;20032;-56
2023/01/18 06:18:31;;;;;;;8.48;4.20;;;-0.30;99.90;;;;;;5104445;28;20039;-55
2023/01/18 06:20:59;;;;;;;7.47;3.53;;;-0.20;99.90;;;;;;5088622;28;20047;-57
2023/01/18 06:23:24;;;;;;;8.73;3.45;;;-0.20;99.90;;;;;;5105887;28;20067;-56
2023/01/18 06:25:51;;;;;;;8.25;4.57;;;-0.20;99.90;;;;;;5108214;28;20309;-56
2023/01/18 06:28:18;;;;;;;15.10;6.72;;;-0.20;99.90;;;;;;5106411;28;20400;-56
2023/01/18 06:30:46;;;;;;;11.50;5.93;;;-0.10;99.90;;;;;;5088112;28;20044;-56
2023/01/18 06:33:15;;;;;;;12.23;5.78;;;-0.10;99.90;;;;;;5105963;28;20219;-57
2023/01/18 06:35:42;;;;;;;9.18;5.35;;;0.00;99.90;;;;;;5108416;28;20032;-54
2023/01/18 06:38:07;;;;;;;8.35;4.07;;;0.00;99.90;;;;;;5086703;28;20020;-55
2023/01/18 06:40:33;;;;;;;9.18;4.95;;;0.00;99.90;;;;;;5098072;28;20100;-52
2023/01/18 06:42:58;;;;;;;19.85;7.82;;;0.00;99.90;;;;;;5085531;28;20047;-56
2023/01/18 06:45:24;;;;;;;16.65;7.75;;;0.00;99.90;;;;;;5086710;28;20455;-55
2023/01/18 06:47:50;;;;;;;13.38;6.57;;;0.00;99.90;;;;;;5088209;28;20020;-56
2023/01/18 06:50:17;;;;;;;22.73;10.35;;;0.00;99.90;;;;;;5104926;28;20028;-56
2023/01/18 06:52:43;;;;;;;18.25;7.63;;;0.00;99.90;;;;;;5090221;28;20056;-55
2023/01/18 06:55:11;;;;;;;20.92;7.70;;;0.10;99.90;;;;;;5095493;28;20032;-57
2023/01/18 06:57:37;;;;;;;14.98;6.63;;;0.00;99.90;;;;;;5093312;28;20377;-56
2023/01/18 07:00:05;;;;;;;15.88;6.53;;;0.10;99.90;;;;;;5109300;28;20030;-56
2023/01/18 07:02:31;;;;;;;16.67;7.43;;;0.10;99.90;;;;;;5091033;28;20491;-55
2023/01/18 07:04:57;;;;;;;22.02;7.68;;;0.10;99.90;;;;;;5097068;28;20024;-56
2023/01/18 07:07:22;;;;;;;14.52;6.43;;;0.20;99.90;;;;;;5087222;28;20035;-59
2023/01/18 07:09:48;;;;;;;15.68;7.13;;;0.20;99.90;;;;;;5107061;28;20024;-59
2023/01/18 07:12:13;;;;;;;13.23;6.47;;;0.20;99.90;;;;;;5087039;28;20032;-55
2023/01/18 07:14:39;;;;;;;11.20;5.97;;;0.20;99.90;;;;;;5108227;28;20035;-58
2023/01/18 07:17:04;;;;;;;12.88;5.18;;;0.30;99.90;;;;;;5087382;28;20484;-56
2023/01/18 07:19:30;;;;;;;16.48;6.25;;;0.30;99.90;;;;;;5108230;28;20102;-57
2023/01/18 07:21:57;;;;;;;13.82;6.43;;;0.30;99.90;;;;;;5087433;28;20496;-57
2023/01/18 07:24:23;;;;;;;10.15;5.47;;;0.30;99.90;;;;;;5108432;28;20106;-56
2023/01/18 07:26:48;;;;;;;8.93;4.32;;;0.30;99.90;;;;;;5088811;28;20453;-53
2023/01/18 07:29:14;;;;;;;7.38;4.03;;;0.40;99.90;;;;;;5112272;28;20741;-57
2023/01/18 07:31:39;;;;;;;7.20;3.97;;;0.40;99.90;;;;;;5091336;28;20529;-56
2023/01/18 07:34:05;;;;;;;13.80;3.35;;;0.40;99.90;;;;;;5112160;28;20038;-56
2023/01/18 07:36:30;;;;;;;7.07;3.40;;;0.40;99.90;;;;;;5091104;28;20479;-56
2023/01/18 07:38:56;;;;;;;3.53;2.30;;;0.40;99.90;;;;;;5112080;28;20342;-58
2023/01/18 07:41:22;;;;;;;4.90;2.10;;;0.50;99.90;;;;;;5091253;28;20032;-52
2023/01/18 07:43:47;;;;;;;6.47;2.47;;;0.50;99.90;;;;;;5111940;28;20028;-54
2023/01/18 07:46:17;;;;;;;5.45;2.22;;;0.50;99.90;;;;;;5090855;28;20028;-57
2023/01/18 07:48:43;;;;;;;4.78;1.80;;;0.60;99.90;;;;;;5112404;28;20047;-57
2023/01/18 07:51:09;;;;;;;5.95;2.47;;;0.60;99.90;;;;;;5099995;28;20696;-56
2023/01/18 07:53:36;;;;;;;4.35;2.60;;;0.60;99.90;;;;;;5092971;28;20020;-55
2023/01/18 07:56:04;;;;;;;4.93;2.28;;;0.60;99.90;;;;;;5101977;28;20050;-57
2023/01/18 07:58:30;;;;;;;3.65;2.20;;;0.60;99.90;;;;;;5112325;28;20027;-57
2023/01/18 08:01:01;;;;;;;4.90;2.40;;;0.70;99.90;;;;;;5090645;28;20051;-57
2023/01/18 08:03:27;;;;;;;5.70;2.35;;;0.70;99.90;;;;;;5091903;28;20024;-53
2023/01/18 08:05:52;;;;;;;5.85;3.03;;;0.80;99.90;;;;;;5094020;28;20040;-52
2023/01/18 08:08:18;;;;;;;4.63;2.63;;;0.70;99.90;;;;;;5092069;28;20063;-53
2023/01/18 08:10:44;;;;;;;6.47;3.72;;;0.80;99.90;;;;;;5103997;28;20031;-51
2023/01/18 08:13:10;;;;;;;5.15;2.92;;;0.80;99.90;;;;;;5091942;28;20714;-56
2023/01/18 08:15:37;;;;;;;8.70;3.05;;;0.80;99.90;;;;;;5105023;28;20020;-53
2023/01/18 08:18:04;;;;;;;6.32;2.88;;;0.80;99.90;;;;;;5091659;28;20032;-53
2023/01/18 08:20:30;;;;;;;7.78;3.38;;;0.90;99.90;;;;;;5106235;28;20508;-61
2023/01/18 08:22:57;;;;;;;6.70;2.50;;;0.90;99.90;;;;;;5091709;28;20683;-66
2023/01/18 08:25:28;;;;;;;9.07;3.25;;;0.90;99.90;;;;;;5106771;28;20054;-66
2023/01/18 08:27:56;;;;;;;6.72;2.30;;;1.00;99.90;;;;;;5091455;28;20417;-64
2023/01/18 08:30:26;;;;;;;5.47;2.70;;;1.00;99.90;;;;;;5104078;28;20040;-64
2023/01/18 08:32:53;;;;;;;4.53;2.63;;;1.00;99.90;;;;;;5091372;28;20027;-64
2023/01/18 08:35:19;;;;;;;4.82;2.88;;;1.10;99.90;;;;;;5107098;28;20168;-64
2023/01/18 08:37:44;;;;;;;5.65;2.22;;;1.20;99.90;;;;;;5090243;28;20107;-63
2023/01/18 08:40:10;;;;;;;3.55;2.40;;;1.20;99.90;;;;;;5108997;28;20161;-63
2023/01/18 08:42:36;;;;;;;6.00;2.10;;;1.30;99.90;;;;;;5111630;28;20023;-63
2023/01/18 08:45:02;;;;;;;5.15;2.10;;;1.40;99.90;;;;;;5092695;28;20089;-63
2023/01/18 08:47:27;;;;;;;4.43;2.42;;;1.40;99.90;;;;;;5090576;28;20455;-63
2023/01/18 08:49:53;;;;;;;6.65;2.53;;;1.50;99.90;;;;;;5110723;28;20023;-63
2023/01/18 08:52:18;;;;;;;5.93;2.20;;;1.70;99.90;;;;;;5089755;28;20391;-63
2023/01/18 08:54:44;;;;;;;4.93;2.17;;;1.80;99.90;;;;;;5110534;28;20632;-63
2023/01/18 08:57:09;;;;;;;6.25;2.38;;;1.90;99.90;;;;;;5089954;28;20060;-63
2023/01/18 08:59:35;;;;;;;6.20;2.53;;;2.00;99.90;;;;;;5109300;28;20027;-62
2023/01/18 09:02:00;;;;;;;5.72;2.92;;;2.10;99.90;;;;;;5089585;28;20028;-63
2023/01/18 09:04:28;;;;;;;4.93;2.80;;;2.20;99.90;;;;;;5109211;28;20110;-62
2023/01/18 09:06:54;;;;;;;9.10;3.88;;;2.30;99.90;;;;;;5085344;28;20090;-63
2023/01/18 09:09:19;;;;;;;9.32;4.55;;;2.50;99.90;;;;;;5110709;28;20031;-63
2023/01/18 09:11:45;;;;;;;7.85;3.63;;;2.60;99.90;;;;;;5089372;28;20032;-63
2023/01/18 09:14:10;;;;;;;9.07;4.05;;;2.70;99.90;;;;;;5110188;28;20032;-63
2023/01/18 09:16:36;;;;;;;7.75;4.53;;;2.80;99.90;;;;;;5089288;28;20055;-62
2023/01/18 09:19:05;;;;;;;8.45;5.32;;;2.90;99.90;;;;;;5108975;28;20067;-64
2023/01/18 09:21:30;;;;;;;8.43;5.45;;;3.10;99.90;;;;;;5088869;28;20031;-64
2023/01/18 09:23:58;;;;;;;13.02;6.38;;;3.20;99.90;;;;;;5109984;28;20024;-64
2023/01/18 09:26:23;;;;;;;11.70;6.63;;;3.20;99.90;;;;;;5099649;28;20040;-63
2023/01/18 09:28:51;;;;;;;7.85;4.63;;;3.30;99.90;;;;;;5090789;28;20066;-63
2023/01/18 09:31:17;;;;;;;9.98;4.80;;;3.30;99.90;;;;;;5108181;28;20040;-64
2023/01/18 09:33:43;;;;;;;7.45;4.05;;;3.30;99.90;;;;;;5090630;28;20032;-63
2023/01/18 09:36:11;;;;;;;7.20;4.25;;;3.30;99.90;;;;;;5098681;28;20028;-63
2023/01/18 09:38:38;;;;;;;6.45;3.65;;;3.30;99.90;;;;;;5110040;28;20031;-63
2023/01/18 09:41:24;;;;;;;6.38;3.33;;;3.30;99.90;;;;;;5088525;28;20161;-63
2023/01/18 09:43:55;;;;;;;7.05;3.47;;;3.20;99.90;;;;;;5069902;28;20032;-63
2023/01/18 09:46:21;;;;;;;8.15;3.00;;;3.20;99.90;;;;;;5078489;28;20040;-63
2023/01/18 09:48:53;;;;;;;6.18;3.25;;;3.20;99.90;;;;;;5108233;28;20059;-63
2023/01/18 09:51:24;;;;;;;9.68;3.13;;;3.20;99.90;;;;;;5088599;28;20503;-63
2023/01/18 09:54:17;;;;;;;5.57;2.92;;;3.20;99.90;;;;;;5069724;28;20090;-63
2023/01/18 09:57:00;;;;;;;5.80;3.22;;;3.20;99.90;;;;;;5095150;28;20076;-62
2023/01/18 09:59:41;;;;;;;7.45;3.15;;;3.20;99.90;;;;;;5069762;28;20029;-63
2023/01/18 10:02:20;;;;;;;7.70;3.80;;;3.10;99.90;;;;;;5090573;28;20060;-63
2023/01/18 10:04:51;;;;;;;9.55;4.35;;;3.10;99.90;;;;;;5072410;28;20028;-62
2023/01/18 10:07:19;;;;;;;15.93;6.18;;;3.10;99.90;;;;;;5089649;28;20115;-63
2023/01/18 10:09:49;;;;;;;25.13;10.55;;;3.10;99.90;;;;;;5109545;28;20019;-63
2023/01/18 10:12:39;;;;;;;30.17;12.00;;;3.20;99.90;;;;;;5086065;28;20032;-63
2023/01/18 10:15:24;;;;;;;26.33;11.32;;;3.30;99.90;;;;;;5107531;28;20575;-62
2023/01/18 10:17:52;;;;;;;27.73;12.70;;;3.40;99.90;;;;;;5109859;28;20110;-63
2023/01/18 10:20:23;;;;;;;23.13;10.95;;;3.50;99.90;;;;;;5087573;28;20442;-63
2023/01/18 10:22:56;;;;;;;23.38;10.68;;;3.60;99.90;;;;;;5089413;28;20039;-64
2023/01/18 10:25:33;;;;;;;16.88;8.98;;;3.70;99.90;;;;;;5069935;28;20409;-63
2023/01/18 10:28:31;;;;;;;13.80;6.75;;;3.70;99.90;;;;;;5089265;28;20050;-63
2023/01/18 10:31:27;;;;;;;23.77;9.65;;;3.80;99.90;;;;;;5079633;28;20048;-63
2023/01/18 10:33:56;;;;;;;20.05;8.63;;;3.90;99.90;;;;;;5064857;28;20060;-63
2023/01/18 10:36:31;;;;;;;16.50;7.43;;;3.90;99.90;;;;;;5096193;28;20029;-63
2023/01/18 10:39:04;;;;;;;11.73;6.28;;;4.00;99.90;;;;;;5068951;28;20418;-64
2023/01/18 10:41:37;;;;;;;13.32;7.18;;;4.00;99.90;;;;;;5078999;28;20032;-63
2023/01/18 10:44:02;;;;;;;10.40;5.95;;;4.00;99.90;;;;;;5109203;28;20161;-64
2023/01/18 10:46:28;;;;;;;10.13;4.82;;;4.00;99.90;;;;;;5087582;28;20501;-63
2023/01/18 10:48:56;;;;;;;6.70;3.83;;;4.00;99.90;;;;;;5108647;28;20027;-64
2023/01/18 10:51:27;;;;;;;7.57;3.53;;;4.00;99.90;;;;;;5087427;28;20036;-64
2023/01/18 10:53:53;;;;;;;6.70;3.80;;;4.00;99.90;;;;;;5108950;28;20047;-63
2023/01/18 10:56:24;;;;;;;9.80;4.18;;;4.00;99.90;;;;;;5087657;28;20032;-64
2023/01/18 10:58:49;;;;;;;8.40;3.65;;;4.00;99.90;;;;;;5068702;28;20035;-63
2023/01/18 11:01:27;;;;;;;5.38;3.42;;;4.00;99.90;;;;;;5095045;28;20028;-63
2023/01/18 11:03:54;;;;;;;7.88;3.70;;;4.00;99.90;;;;;;5108849;28;20114;-64
2023/01/18 11:06:21;;;;;;;7.43;4.38;;;4.00;99.90;;;;;;5083132;28;20071;-63
2023/01/18 11:08:48;;;;;;;8.50;4.97;;;3.90;99.90;;;;;;5108567;28;20031;-63
2023/01/18 11:14:30;;;;;;;7.38;3.47;;;3.90;99.90;;;;;;5068766;28;20554;-59
2023/01/18 11:17:10;;;;;;;5.45;3.30;;;3.90;99.90;;;;;;5090166;28;20060;-59
2023/01/18 11:19:37;;;;;;;7.43;3.40;;;3.90;99.90;;;;;;5068677;28;20028;-58
2023/01/18 11:22:09;;;;;;;6.57;2.72;;;3.90;99.90;;;;;;5089549;28;20020;-59
2023/01/18 11:24:36;;;;;;;5.28;2.95;;;3.90;99.90;;;;;;5068649;28;20033;-58
2023/01/18 11:27:12;;;;;;;3.22;2.55;;;3.90;99.90;;;;;;5089481;28;20040;-59
2023/01/18 11:29:42;;;;;;;;;;;3.90;99.90;;;;;;5068987;28;20027;-58
2023/01/18 11:32:22;;;;;;;4.85;2.67;;;3.90;99.90;;;;;;5089042;28;19986;-59
2023/01/18 11:34:52;;;;;;;4.13;2.20;;;3.90;99.90;;;;;;5068455;28;20060;-59
2023/01/18 11:37:28;;;;;;;6.22;3.20;;;3.90;99.90;;;;;;5087855;28;20028;-59
2023/01/18 11:39:53;;;;;;;6.20;3.70;;;3.90;99.90;;;;;;5108251;28;20035;-59
2023/01/18 11:42:26;;;;;;;9.05;5.20;;;3.90;99.90;;;;;;5087231;28;20077;-58
2023/01/18 11:45:27;;;;;;;7.57;4.05;;;3.90;99.90;;;;;;5108615;28;20406;-60
2023/01/18 11:48:31;;;;;;;11.98;3.88;;;3.90;99.90;;;;;;5068183;28;20430;-59
2023/01/18 11:51:32;;;;;;;5.90;3.85;;;3.90;99.90;;;;;;5098000;28;20029;-59
2023/01/18 11:54:25;;;;;;;9.02;3.80;;;3.90;99.90;;;;;;5068255;28;20572;-59
2023/01/18 11:56:54;;;;;;;6.63;3.80;;;3.90;99.90;;;;;;5081549;28;20032;-59
2023/01/18 11:59:28;;;;;;;9.82;4.93;;;3.80;99.90;;;;;;5108669;28;20042;-59
2023/01/18 12:02:19;;;;;;;10.65;4.38;;;3.80;99.90;;;;;;5081769;28;20080;-59
2023/01/18 12:04:54;;;;;;;9.38;5.13;;;3.80;99.90;;;;;;5054939;28;20039;-59
2023/01/18 12:07:38;;;;;;;8.65;4.18;;;3.80;99.90;;;;;;5086458;28;20097;-59
2023/01/18 12:10:09;;;;;;;9.60;5.10;;;3.80;99.90;;;;;;5066433;28;20260;-57
2023/01/18 12:12:43;;;;;;;10.48;4.38;;;3.80;99.90;;;;;;5089464;28;20504;-58
2023/01/18 12:15:19;;;;;;;7.20;3.60;;;3.80;99.90;;;;;;5094891;28;20157;-59
2023/01/18 12:17:47;;;;;;;;;;;3.80;99.90;;;;;;5072085;28;20032;-59
2023/01/18 12:20:37;;;;;;;6.97;3.58;;;3.80;99.90;;;;;;5093535;28;19961;-59
2023/01/18 12:23:14;;;;;;;8.48;4.45;;;3.80;99.90;;;;;;5071587;28;20071;-59
2023/01/18 12:26:00;;;;;;;20.42;6.03;;;3.80;99.90;;;;;;5088931;28;20036;-59
2023/01/18 12:29:00;;;;;;;27.73;8.33;;;3.70;99.90;;;;;;5070027;28;20017;-59
2023/01/18 12:31:56;;;;;;;18.00;7.25;;;3.80;99.90;;;;;;5105435;28;20284;-59
2023/01/18 12:34:33;;;;;;;10.63;4.82;;;3.80;99.90;;;;;;5077922;28;20511;-59
2023/01/18 12:37:10;;;;;;;7.63;4.03;;;3.80;99.90;;;;;;5069738;28;20519;-59
2023/01/18 12:40:04;;;;;;;8.68;4.50;;;3.80;99.90;;;;;;5079436;28;20028;-58
2023/01/18 12:42:51;;;;;;;10.20;4.65;;;3.80;99.90;;;;;;5065255;28;20048;-59
2023/01/18 12:45:37;;;;;;;9.30;4.60;;;3.80;99.90;;;;;;5085132;28;20031;-59
2023/01/18 12:48:12;;;;;;;11.43;4.72;;;3.80;99.90;;;;;;5070893;28;20492;-59
2023/01/18 12:50:38;;;;;;;11.30;4.40;;;3.70;99.90;;;;;;5089262;28;20032;-59
2023/01/18 12:53:12;;;;;;;6.78;4.07;;;3.70;99.90;;;;;;5110751;28;20051;-59
2023/01/18 12:55:39;;;;;;;7.43;4.60;;;3.70;99.90;;;;;;5087836;28;20107;-59
2023/01/18 12:58:07;;;;;;;7.95;4.38;;;3.70;99.90;;;;;;5110812;28;20024;-59
2023/01/18 13:00:37;;;;;;;8.70;3.80;;;3.70;99.90;;;;;;5089339;28;20032;-59
2023/01/18 13:03:12;;;;;;;7.25;3.85;;;3.70;99.90;;;;;;5110942;28;20471;-58
2023/01/18 13:05:51;;;;;;;8.20;4.53;;;3.80;99.90;;;;;;5095614;28;20407;-58
2023/01/18 13:08:35;;;;;;;6.45;3.90;;;3.80;99.90;;;;;;5070576;28;20083;-58
2023/01/18 13:11:20;;;;;;;7.03;4.65;;;3.70;99.90;;;;;;5070595;28;20370;-59
2023/01/18 13:13:51;;;;;;;9.02;3.80;;;3.70;99.90;;;;;;5071945;28;20028;-59
2023/01/18 13:16:54;;;;;;;7.55;3.58;;;3.70;99.90;;;;;;5090643;28;20028;-59
2023/01/18 13:19:32;;;;;;;7.00;4.18;;;3.70;99.90;;;;;;5074173;28;20123;-59
2023/01/18 13:22:27;;;;;;;6.82;4.22;;;3.70;99.90;;;;;;5070515;28;20207;-59
2023/01/18 13:25:30;;;;;;;8.45;3.88;;;3.70;99.90;;;;;;5092748;28;20074;-59
2023/01/18 13:27:58;;;;;;;7.03;3.88;;;3.70;99.90;;;;;;5089775;28;20056;-58
2023/01/18 13:30:25;;;;;;;9.20;4.50;;;3.70;99.90;;;;;;5096764;28;20039;-59
2023/01/18 13:32:52;;;;;;;8.43;3.90;;;3.70;99.90;;;;;;5110565;28;20031;-59
2023/01/18 13:35:27;;;;;;;10.35;4.28;;;3.70;99.90;;;;;;5088734;28;20016;-58
2023/01/18 13:37:56;;;;;;;12.10;5.22;;;3.70;99.90;;;;;;5069939;28;20103;-59
2023/01/18 13:40:50;;;;;;;7.85;4.40;;;3.70;99.90;;;;;;5091569;28;20048;-59
2023/01/18 13:43:34;;;;;;;7.25;4.43;;;3.70;99.90;;;;;;5070100;28;20036;-59
2023/01/18 13:46:06;;;;;;;6.65;4.25;;;3.70;99.90;;;;;;5069692;28;20033;-59
2023/01/18 13:48:40;;;;;;;7.13;4.32;;;3.70;99.90;;;;;;5105635;28;20027;-59
2023/01/18 13:51:05;;;;;;;8.23;4.65;;;3.70;99.90;;;;;;5090184;28;20012;-59